sensor_id;sensor_type;location;lat;lon;timestamp;P1;durP1;ratioP1;P2;durP2;ratioP2
50739;SDS011;36704;52.524;17.580;2022-12-18T00:01:56;48.58;;;18.52;;
50739;SDS011;36704;52.524;17.580;2022-12-18T00:04:47;53.00;;;18.85;;
50739;SDS011;36704;52.524;17.580;2022-12-18T00:07:34;53.50;;;19.65;;
50739;SDS011;36704;52.524;17.580;2022-12-18T00:10:22;53.05;;;18.15;;
50739;SDS011;36704;52.524;17.580;2022-12-18T00:13:08;52.72;;;19.17;;
50739;SDS011;36704;52.524;17.580;2022-12-18T00:16:00;53.95;;;19.60;;
50739;SDS011;36704;52.524;17.580;2022-12-18T00:18:52;54.35;;;19.48;;
50739;SDS011;36704;52.524;17.580;2022-12-18T00:21:43;59.10;;;20.60;;
50739;SDS011;36704;52.524;17.580;2022-12-18T00:24:30;57.50;;;20.40;;
50739;SDS011;36704;52.524;17.580;2022-12-18T00:27:16;54.30;;;18.23;;
50739;SDS011;36704;52.524;17.580;2022-12-18T00:30:03;63.10;;;20.52;;
50739;SDS011;36704;52.524;17.580;2022-12-18T00:32:51;64.30;;;20.42;;
50739;SDS011;36704;52.524;17.580;2022-12-18T00:35:38;57.33;;;19.60;;
50739;SDS011;36704;52.524;17.580;2022-12-18T00:38:25;50.13;;;19.60;;
50739;SDS011;36704;52.524;17.580;2022-12-18T00:41:12;52.88;;;18.90;;
50739;SDS011;36704;52.524;17.580;2022-12-18T00:44:21;53.45;;;19.00;;
50739;SDS011;36704;52.524;17.580;2022-12-18T00:47:09;48.88;;;19.40;;
50739;SDS011;36704;52.524;17.580;2022-12-18T00:49:55;55.67;;;18.17;;
50739;SDS011;36704;52.524;17.580;2022-12-18T00:52:42;56.08;;;18.63;;
50739;SDS011;36704;52.524;17.580;2022-12-18T00:55:29;53.80;;;18.00;;
50739;SDS011;36704;52.524;17.580;2022-12-18T00:58:16;57.47;;;19.50;;
50739;SDS011;36704;52.524;17.580;2022-12-18T01:01:05;48.30;;;17.92;;
50739;SDS011;36704;52.524;17.580;2022-12-18T01:03:53;50.85;;;19.70;;
50739;SDS011;36704;52.524;17.580;2022-12-18T01:06:42;55.42;;;19.60;;
50739;SDS011;36704;52.524;17.580;2022-12-18T01:09:29;51.72;;;18.90;;
50739;SDS011;36704;52.524;17.580;2022-12-18T01:12:16;52.38;;;19.13;;
50739;SDS011;36704;52.524;17.580;2022-12-18T01:15:06;58.08;;;19.98;;
50739;SDS011;36704;52.524;17.580;2022-12-18T01:17:55;59.75;;;20.33;;
50739;SDS011;36704;52.524;17.580;2022-12-18T01:20:44;57.08;;;19.92;;
50739;SDS011;36704;52.524;17.580;2022-12-18T01:23:31;49.72;;;18.38;;
50739;SDS011;36704;52.524;17.580;2022-12-18T01:26:19;53.00;;;20.50;;
50739;SDS011;36704;52.524;17.580;2022-12-18T01:29:06;58.20;;;20.95;;
50739;SDS011;36704;52.524;17.580;2022-12-18T01:31:54;55.83;;;19.17;;
50739;SDS011;36704;52.524;17.580;2022-12-18T01:34:41;50.38;;;18.33;;
50739;SDS011;36704;52.524;17.580;2022-12-18T01:37:27;48.38;;;18.85;;
50739;SDS011;36704;52.524;17.580;2022-12-18T01:40:14;52.70;;;18.77;;
50739;SDS011;36704;52.524;17.580;2022-12-18T01:43:00;54.50;;;18.80;;
50739;SDS011;36704;52.524;17.580;2022-12-18T01:45:48;51.85;;;19.50;;
50739;SDS011;36704;52.524;17.580;2022-12-18T01:48:34;52.65;;;18.55;;
50739;SDS011;36704;52.524;17.580;2022-12-18T01:51:22;56.97;;;18.92;;
50739;SDS011;36704;52.524;17.580;2022-12-18T01:54:09;53.58;;;19.02;;
50739;SDS011;36704;52.524;17.580;2022-12-18T01:56:55;55.60;;;17.95;;
50739;SDS011;36704;52.524;17.580;2022-12-18T01:59:42;56.42;;;18.42;;
50739;SDS011;36704;52.524;17.580;2022-12-18T02:02:31;51.42;;;17.75;;
50739;SDS011;36704;52.524;17.580;2022-12-18T02:20:44;52.63;;;19.90;;
50739;SDS011;36704;52.524;17.580;2022-12-18T02:26:50;44.35;;;16.52;;
50739;SDS011;36704;52.524;17.580;2022-12-18T02:29:52;46.67;;;17.63;;
50739;SDS011;36704;52.524;17.580;2022-12-18T02:32:47;53.90;;;18.38;;
50739;SDS011;36704;52.524;17.580;2022-12-18T02:35:37;51.67;;;18.33;;
50739;SDS011;36704;52.524;17.580;2022-12-18T02:38:26;56.35;;;19.75;;
50739;SDS011;36704;52.524;17.580;2022-12-18T02:41:14;55.60;;;19.95;;
50739;SDS011;36704;52.524;17.580;2022-12-18T02:44:07;54.08;;;18.00;;
50739;SDS011;36704;52.524;17.580;2022-12-18T02:46:56;59.55;;;20.42;;
50739;SDS011;36704;52.524;17.580;2022-12-18T02:58:59;64.20;;;20.33;;
50739;SDS011;36704;52.524;17.580;2022-12-18T03:02:02;61.78;;;19.55;;
50739;SDS011;36704;52.524;17.580;2022-12-18T03:04:57;61.28;;;20.38;;
50739;SDS011;36704;52.524;17.580;2022-12-18T03:08:06;59.72;;;20.30;;
50739;SDS011;36704;52.524;17.580;2022-12-18T03:10:59;65.40;;;22.65;;
50739;SDS011;36704;52.524;17.580;2022-12-18T03:13:52;62.53;;;21.33;;
50739;SDS011;36704;52.524;17.580;2022-12-18T03:16:43;66.90;;;21.42;;
50739;SDS011;36704;52.524;17.580;2022-12-18T03:19:31;66.10;;;22.27;;
50739;SDS011;36704;52.524;17.580;2022-12-18T03:22:20;69.68;;;22.08;;
50739;SDS011;36704;52.524;17.580;2022-12-18T03:25:13;58.88;;;21.33;;
50739;SDS011;36704;52.524;17.580;2022-12-18T03:28:00;63.40;;;23.02;;
50739;SDS011;36704;52.524;17.580;2022-12-18T03:30:53;64.63;;;21.77;;
50739;SDS011;36704;52.524;17.580;2022-12-18T03:36:34;61.78;;;23.27;;
50739;SDS011;36704;52.524;17.580;2022-12-18T03:39:20;71.40;;;23.30;;
50739;SDS011;36704;52.524;17.580;2022-12-18T03:42:15;81.22;;;26.67;;
50739;SDS011;36704;52.524;17.580;2022-12-18T03:45:14;66.18;;;23.77;;
50739;SDS011;36704;52.524;17.580;2022-12-18T03:51:02;67.28;;;24.80;;
50739;SDS011;36704;52.524;17.580;2022-12-18T03:53:58;83.80;;;24.63;;
50739;SDS011;36704;52.524;17.580;2022-12-18T03:56:52;87.63;;;26.50;;
50739;SDS011;36704;52.524;17.580;2022-12-18T03:59:44;68.10;;;22.63;;
50739;SDS011;36704;52.524;17.580;2022-12-18T04:02:35;70.88;;;23.63;;
50739;SDS011;36704;52.524;17.580;2022-12-18T04:08:13;67.07;;;21.77;;
50739;SDS011;36704;52.524;17.580;2022-12-18T04:11:07;67.18;;;21.85;;
50739;SDS011;36704;52.524;17.580;2022-12-18T04:13:58;69.65;;;22.52;;
50739;SDS011;36704;52.524;17.580;2022-12-18T04:16:51;70.03;;;24.05;;
50739;SDS011;36704;52.524;17.580;2022-12-18T04:19:42;72.20;;;22.58;;
50739;SDS011;36704;52.524;17.580;2022-12-18T04:22:29;70.75;;;23.38;;
50739;SDS011;36704;52.524;17.580;2022-12-18T04:25:20;75.97;;;25.23;;
50739;SDS011;36704;52.524;17.580;2022-12-18T04:28:23;83.55;;;26.67;;
50739;SDS011;36704;52.524;17.580;2022-12-18T04:31:10;65.93;;;22.48;;
50739;SDS011;36704;52.524;17.580;2022-12-18T04:33:57;69.45;;;22.98;;
50739;SDS011;36704;52.524;17.580;2022-12-18T04:36:44;68.60;;;23.55;;
50739;SDS011;36704;52.524;17.580;2022-12-18T04:39:32;74.78;;;25.48;;
50739;SDS011;36704;52.524;17.580;2022-12-18T04:42:24;82.65;;;28.10;;
50739;SDS011;36704;52.524;17.580;2022-12-18T04:45:10;87.10;;;27.13;;
50739;SDS011;36704;52.524;17.580;2022-12-18T04:47:57;78.00;;;25.88;;
50739;SDS011;36704;52.524;17.580;2022-12-18T04:50:45;65.18;;;23.55;;
50739;SDS011;36704;52.524;17.580;2022-12-18T04:53:33;83.07;;;24.48;;
50739;SDS011;36704;52.524;17.580;2022-12-18T04:56:19;64.32;;;23.70;;
50739;SDS011;36704;52.524;17.580;2022-12-18T04:59:06;70.50;;;27.65;;
50739;SDS011;36704;52.524;17.580;2022-12-18T05:01:53;71.53;;;23.20;;
50739;SDS011;36704;52.524;17.580;2022-12-18T05:04:40;66.03;;;20.80;;
50739;SDS011;36704;52.524;17.580;2022-12-18T05:07:27;71.13;;;22.63;;
50739;SDS011;36704;52.524;17.580;2022-12-18T05:10:13;67.15;;;22.63;;
50739;SDS011;36704;52.524;17.580;2022-12-18T05:13:03;68.85;;;22.52;;
50739;SDS011;36704;52.524;17.580;2022-12-18T05:15:52;65.65;;;23.27;;
50739;SDS011;36704;52.524;17.580;2022-12-18T05:18:40;75.83;;;22.40;;
50739;SDS011;36704;52.524;17.580;2022-12-18T05:21:26;74.72;;;22.60;;
50739;SDS011;36704;52.524;17.580;2022-12-18T05:24:13;76.68;;;25.33;;
50739;SDS011;36704;52.524;17.580;2022-12-18T05:27:01;68.47;;;23.13;;
50739;SDS011;36704;52.524;17.580;2022-12-18T05:29:48;73.60;;;26.60;;
50739;SDS011;36704;52.524;17.580;2022-12-18T05:32:34;81.65;;;24.73;;
50739;SDS011;36704;52.524;17.580;2022-12-18T05:35:21;75.53;;;26.05;;
50739;SDS011;36704;52.524;17.580;2022-12-18T05:38:07;81.72;;;27.33;;
50739;SDS011;36704;52.524;17.580;2022-12-18T05:40:54;86.35;;;29.38;;
50739;SDS011;36704;52.524;17.580;2022-12-18T05:43:41;97.22;;;33.58;;
50739;SDS011;36704;52.524;17.580;2022-12-18T05:46:29;76.60;;;24.92;;
50739;SDS011;36704;52.524;17.580;2022-12-18T05:49:16;146.45;;;52.42;;
50739;SDS011;36704;52.524;17.580;2022-12-18T05:52:03;77.78;;;26.05;;
50739;SDS011;36704;52.524;17.580;2022-12-18T05:54:49;73.53;;;24.35;;
50739;SDS011;36704;52.524;17.580;2022-12-18T05:57:36;71.50;;;24.05;;
50739;SDS011;36704;52.524;17.580;2022-12-18T06:00:25;66.50;;;23.45;;
50739;SDS011;36704;52.524;17.580;2022-12-18T06:03:12;72.35;;;24.00;;
50739;SDS011;36704;52.524;17.580;2022-12-18T06:05:59;58.97;;;22.27;;
50739;SDS011;36704;52.524;17.580;2022-12-18T06:08:46;69.93;;;24.27;;
50739;SDS011;36704;52.524;17.580;2022-12-18T06:11:32;60.05;;;21.80;;
50739;SDS011;36704;52.524;17.580;2022-12-18T06:14:20;62.72;;;21.98;;
50739;SDS011;36704;52.524;17.580;2022-12-18T06:17:07;58.25;;;21.02;;
50739;SDS011;36704;52.524;17.580;2022-12-18T06:19:53;58.45;;;21.33;;
50739;SDS011;36704;52.524;17.580;2022-12-18T06:22:39;60.42;;;22.25;;
50739;SDS011;36704;52.524;17.580;2022-12-18T06:25:26;62.72;;;21.73;;
50739;SDS011;36704;52.524;17.580;2022-12-18T06:28:13;67.72;;;21.90;;
50739;SDS011;36704;52.524;17.580;2022-12-18T06:31:00;61.33;;;19.75;;
50739;SDS011;36704;52.524;17.580;2022-12-18T06:33:51;62.17;;;23.08;;
50739;SDS011;36704;52.524;17.580;2022-12-18T06:36:41;61.30;;;21.95;;
50739;SDS011;36704;52.524;17.580;2022-12-18T06:39:29;51.70;;;19.17;;
50739;SDS011;36704;52.524;17.580;2022-12-18T06:42:16;47.15;;;19.48;;
50739;SDS011;36704;52.524;17.580;2022-12-18T06:45:03;56.22;;;19.90;;
50739;SDS011;36704;52.524;17.580;2022-12-18T06:47:50;53.80;;;18.98;;
50739;SDS011;36704;52.524;17.580;2022-12-18T06:50:36;56.00;;;19.30;;
50739;SDS011;36704;52.524;17.580;2022-12-18T06:53:23;65.28;;;21.95;;
50739;SDS011;36704;52.524;17.580;2022-12-18T06:56:09;60.28;;;21.05;;
50739;SDS011;36704;52.524;17.580;2022-12-18T06:58:57;65.15;;;22.17;;
50739;SDS011;36704;52.524;17.580;2022-12-18T07:01:43;111.35;;;32.50;;
50739;SDS011;36704;52.524;17.580;2022-12-18T07:04:31;245.40;;;68.20;;
50739;SDS011;36704;52.524;17.580;2022-12-18T07:07:18;354.35;;;87.45;;
50739;SDS011;36704;52.524;17.580;2022-12-18T07:10:05;197.55;;;48.78;;
50739;SDS011;36704;52.524;17.580;2022-12-18T07:12:51;386.05;;;86.47;;
50739;SDS011;36704;52.524;17.580;2022-12-18T07:15:38;397.05;;;94.22;;
50739;SDS011;36704;52.524;17.580;2022-12-18T07:18:25;201.77;;;46.70;;
50739;SDS011;36704;52.524;17.580;2022-12-18T07:21:13;195.38;;;55.72;;
50739;SDS011;36704;52.524;17.580;2022-12-18T07:24:01;211.35;;;70.53;;
50739;SDS011;36704;52.524;17.580;2022-12-18T07:26:48;67.00;;;23.50;;
50739;SDS011;36704;52.524;17.580;2022-12-18T07:29:34;71.85;;;25.65;;
50739;SDS011;36704;52.524;17.580;2022-12-18T07:32:24;67.13;;;22.88;;
50739;SDS011;36704;52.524;17.580;2022-12-18T07:35:10;65.68;;;22.77;;
50739;SDS011;36704;52.524;17.580;2022-12-18T07:37:57;71.90;;;24.02;;
50739;SDS011;36704;52.524;17.580;2022-12-18T07:40:43;72.93;;;27.75;;
50739;SDS011;36704;52.524;17.580;2022-12-18T07:43:30;70.20;;;23.70;;
50739;SDS011;36704;52.524;17.580;2022-12-18T07:46:17;73.53;;;26.40;;
50739;SDS011;36704;52.524;17.580;2022-12-18T07:49:19;105.82;;;40.65;;
50739;SDS011;36704;52.524;17.580;2022-12-18T07:52:19;92.15;;;33.53;;
50739;SDS011;36704;52.524;17.580;2022-12-18T07:55:22;82.65;;;26.15;;
50739;SDS011;36704;52.524;17.580;2022-12-18T07:58:15;97.00;;;31.15;;
50739;SDS011;36704;52.524;17.580;2022-12-18T08:01:29;74.63;;;24.70;;
50739;SDS011;36704;52.524;17.580;2022-12-18T08:04:20;82.50;;;28.95;;
50739;SDS011;36704;52.524;17.580;2022-12-18T08:07:16;102.85;;;33.28;;
50739;SDS011;36704;52.524;17.580;2022-12-18T08:10:08;84.80;;;28.67;;
50739;SDS011;36704;52.524;17.580;2022-12-18T08:13:04;95.78;;;30.98;;
50739;SDS011;36704;52.524;17.580;2022-12-18T08:16:05;86.28;;;27.42;;
50739;SDS011;36704;52.524;17.580;2022-12-18T08:19:02;91.82;;;29.30;;
50739;SDS011;36704;52.524;17.580;2022-12-18T08:21:58;79.25;;;26.83;;
50739;SDS011;36704;52.524;17.580;2022-12-18T08:25:02;74.45;;;23.85;;
50739;SDS011;36704;52.524;17.580;2022-12-18T08:27:50;75.55;;;25.80;;
50739;SDS011;36704;52.524;17.580;2022-12-18T08:30:37;108.65;;;34.28;;
50739;SDS011;36704;52.524;17.580;2022-12-18T08:33:24;106.45;;;31.90;;
50739;SDS011;36704;52.524;17.580;2022-12-18T08:36:10;372.13;;;91.33;;
50739;SDS011;36704;52.524;17.580;2022-12-18T08:38:57;120.18;;;33.72;;
50739;SDS011;36704;52.524;17.580;2022-12-18T08:41:45;132.27;;;34.80;;
50739;SDS011;36704;52.524;17.580;2022-12-18T08:44:55;173.98;;;41.65;;
50739;SDS011;36704;52.524;17.580;2022-12-18T08:47:41;167.27;;;38.63;;
50739;SDS011;36704;52.524;17.580;2022-12-18T08:50:28;109.07;;;30.52;;
50739;SDS011;36704;52.524;17.580;2022-12-18T08:53:14;100.65;;;29.45;;
50739;SDS011;36704;52.524;17.580;2022-12-18T08:56:01;94.00;;;27.60;;
50739;SDS011;36704;52.524;17.580;2022-12-18T08:58:50;191.18;;;46.47;;
50739;SDS011;36704;52.524;17.580;2022-12-18T09:01:40;141.75;;;37.20;;
50739;SDS011;36704;52.524;17.580;2022-12-18T09:04:27;127.10;;;36.88;;
50739;SDS011;36704;52.524;17.580;2022-12-18T09:07:14;103.32;;;32.25;;
50739;SDS011;36704;52.524;17.580;2022-12-18T09:10:02;87.43;;;28.27;;
50739;SDS011;36704;52.524;17.580;2022-12-18T09:12:48;87.40;;;28.55;;
50739;SDS011;36704;52.524;17.580;2022-12-18T09:15:46;93.38;;;27.63;;
50739;SDS011;36704;52.524;17.580;2022-12-18T09:18:34;120.38;;;36.55;;
50739;SDS011;36704;52.524;17.580;2022-12-18T09:21:21;147.15;;;50.33;;
50739;SDS011;36704;52.524;17.580;2022-12-18T09:24:08;108.15;;;37.92;;
50739;SDS011;36704;52.524;17.580;2022-12-18T09:29:45;109.32;;;39.22;;
50739;SDS011;36704;52.524;17.580;2022-12-18T09:32:32;122.90;;;37.83;;
50739;SDS011;36704;52.524;17.580;2022-12-18T09:35:21;111.72;;;35.45;;
50739;SDS011;36704;52.524;17.580;2022-12-18T09:38:14;117.07;;;40.55;;
50739;SDS011;36704;52.524;17.580;2022-12-18T09:44:02;106.05;;;35.20;;
50739;SDS011;36704;52.524;17.580;2022-12-18T09:47:11;180.68;;;55.42;;
50739;SDS011;36704;52.524;17.580;2022-12-18T09:50:03;143.40;;;42.33;;
50739;SDS011;36704;52.524;17.580;2022-12-18T09:52:52;121.97;;;36.28;;
50739;SDS011;36704;52.524;17.580;2022-12-18T09:55:41;444.58;;;114.82;;
50739;SDS011;36704;52.524;17.580;2022-12-18T09:58:41;281.90;;;61.92;;
50739;SDS011;36704;52.524;17.580;2022-12-18T10:01:33;439.35;;;96.72;;
50739;SDS011;36704;52.524;17.580;2022-12-18T10:04:28;218.55;;;51.55;;
50739;SDS011;36704;52.524;17.580;2022-12-18T10:07:27;142.05;;;47.97;;
50739;SDS011;36704;52.524;17.580;2022-12-18T10:13:31;199.13;;;67.95;;
50739;SDS011;36704;52.524;17.580;2022-12-18T10:16:32;368.80;;;125.85;;
50739;SDS011;36704;52.524;17.580;2022-12-18T10:19:37;155.48;;;50.00;;
50739;SDS011;36704;52.524;17.580;2022-12-18T10:22:44;176.75;;;52.40;;
50739;SDS011;36704;52.524;17.580;2022-12-18T10:25:40;176.18;;;60.70;;
50739;SDS011;36704;52.524;17.580;2022-12-18T10:28:39;183.50;;;56.92;;
50739;SDS011;36704;52.524;17.580;2022-12-18T10:31:27;252.55;;;59.83;;
50739;SDS011;36704;52.524;17.580;2022-12-18T10:34:14;247.35;;;64.35;;
50739;SDS011;36704;52.524;17.580;2022-12-18T10:37:03;167.05;;;51.15;;
50739;SDS011;36704;52.524;17.580;2022-12-18T10:40:10;136.77;;;44.10;;
50739;SDS011;36704;52.524;17.580;2022-12-18T10:43:11;183.77;;;52.47;;
50739;SDS011;36704;52.524;17.580;2022-12-18T10:48:56;148.70;;;43.63;;
50739;SDS011;36704;52.524;17.580;2022-12-18T10:51:44;182.60;;;54.55;;
50739;SDS011;36704;52.524;17.580;2022-12-18T10:54:32;162.00;;;50.28;;
50739;SDS011;36704;52.524;17.580;2022-12-18T11:00:21;115.75;;;38.47;;
50739;SDS011;36704;52.524;17.580;2022-12-18T11:03:28;143.25;;;43.22;;
50739;SDS011;36704;52.524;17.580;2022-12-18T11:06:26;216.25;;;55.85;;
50739;SDS011;36704;52.524;17.580;2022-12-18T11:09:19;163.07;;;50.55;;
50739;SDS011;36704;52.524;17.580;2022-12-18T11:12:18;155.85;;;42.72;;
50739;SDS011;36704;52.524;17.580;2022-12-18T11:15:06;142.95;;;42.30;;
50739;SDS011;36704;52.524;17.580;2022-12-18T11:17:53;136.27;;;41.75;;
50739;SDS011;36704;52.524;17.580;2022-12-18T11:20:39;160.68;;;43.78;;
50739;SDS011;36704;52.524;17.580;2022-12-18T11:23:26;178.38;;;51.20;;
50739;SDS011;36704;52.524;17.580;2022-12-18T11:26:13;198.52;;;67.82;;
50739;SDS011;36704;52.524;17.580;2022-12-18T11:29:08;90.68;;;31.92;;
50739;SDS011;36704;52.524;17.580;2022-12-18T11:35:01;131.43;;;39.00;;
50739;SDS011;36704;52.524;17.580;2022-12-18T11:40:41;103.22;;;34.15;;
50739;SDS011;36704;52.524;17.580;2022-12-18T11:43:31;141.18;;;48.83;;
50739;SDS011;36704;52.524;17.580;2022-12-18T11:46:32;168.52;;;53.58;;
50739;SDS011;36704;52.524;17.580;2022-12-18T11:49:25;156.73;;;50.45;;
50739;SDS011;36704;52.524;17.580;2022-12-18T11:52:16;156.98;;;53.47;;
50739;SDS011;36704;52.524;17.580;2022-12-18T11:58:24;92.68;;;32.13;;
50739;SDS011;36704;52.524;17.580;2022-12-18T12:01:22;85.70;;;29.02;;
50739;SDS011;36704;52.524;17.580;2022-12-18T12:04:26;90.20;;;31.50;;
50739;SDS011;36704;52.524;17.580;2022-12-18T12:07:21;120.13;;;35.13;;
50739;SDS011;36704;52.524;17.580;2022-12-18T12:13:03;136.13;;;45.97;;
50739;SDS011;36704;52.524;17.580;2022-12-18T12:21:53;161.38;;;45.08;;
50739;SDS011;36704;52.524;17.580;2022-12-18T12:24:46;179.52;;;54.78;;
50739;SDS011;36704;52.524;17.580;2022-12-18T12:37:23;109.70;;;38.15;;
50739;SDS011;36704;52.524;17.580;2022-12-18T12:40:19;96.55;;;34.15;;
50739;SDS011;36704;52.524;17.580;2022-12-18T12:46:29;103.55;;;32.30;;
50739;SDS011;36704;52.524;17.580;2022-12-18T12:49:24;100.43;;;32.90;;
50739;SDS011;36704;52.524;17.580;2022-12-18T12:55:32;196.70;;;67.75;;
50739;SDS011;36704;52.524;17.580;2022-12-18T13:07:29;95.10;;;41.50;;
50739;SDS011;36704;52.524;17.580;2022-12-18T13:10:25;81.30;;;33.53;;
50739;SDS011;36704;52.524;17.580;2022-12-18T13:13:20;78.38;;;29.65;;
50739;SDS011;36704;52.524;17.580;2022-12-18T13:16:08;79.63;;;28.00;;
50739;SDS011;36704;52.524;17.580;2022-12-18T13:18:56;102.25;;;37.33;;
50739;SDS011;36704;52.524;17.580;2022-12-18T13:21:45;109.53;;;38.20;;
50739;SDS011;36704;52.524;17.580;2022-12-18T13:24:40;95.35;;;33.72;;
50739;SDS011;36704;52.524;17.580;2022-12-18T13:39:36;229.98;;;74.57;;
50739;SDS011;36704;52.524;17.580;2022-12-18T13:45:39;107.70;;;39.70;;
50739;SDS011;36704;52.524;17.580;2022-12-18T13:48:30;122.13;;;43.78;;
50739;SDS011;36704;52.524;17.580;2022-12-18T13:51:19;126.20;;;46.00;;
50739;SDS011;36704;52.524;17.580;2022-12-18T13:54:13;223.82;;;78.82;;
50739;SDS011;36704;52.524;17.580;2022-12-18T14:03:18;347.33;;;101.90;;
50739;SDS011;36704;52.524;17.580;2022-12-18T14:06:10;305.95;;;98.22;;
50739;SDS011;36704;52.524;17.580;2022-12-18T14:08:59;218.27;;;77.10;;
50739;SDS011;36704;52.524;17.580;2022-12-18T14:11:47;126.22;;;47.75;;
50739;SDS011;36704;52.524;17.580;2022-12-18T14:14:35;157.52;;;58.35;;
50739;SDS011;36704;52.524;17.580;2022-12-18T14:17:21;202.25;;;73.65;;
50739;SDS011;36704;52.524;17.580;2022-12-18T14:20:13;229.02;;;70.90;;
50739;SDS011;36704;52.524;17.580;2022-12-18T14:23:00;359.63;;;100.00;;
50739;SDS011;36704;52.524;17.580;2022-12-18T14:25:47;322.33;;;91.00;;
50739;SDS011;36704;52.524;17.580;2022-12-18T14:28:42;193.25;;;58.17;;
50739;SDS011;36704;52.524;17.580;2022-12-18T14:31:30;186.45;;;59.53;;
50739;SDS011;36704;52.524;17.580;2022-12-18T14:34:17;122.57;;;45.63;;
50739;SDS011;36704;52.524;17.580;2022-12-18T14:37:05;108.95;;;40.97;;
50739;SDS011;36704;52.524;17.580;2022-12-18T14:40:14;122.15;;;43.10;;
50739;SDS011;36704;52.524;17.580;2022-12-18T14:43:02;138.65;;;47.40;;
50739;SDS011;36704;52.524;17.580;2022-12-18T14:45:48;149.23;;;49.70;;
50739;SDS011;36704;52.524;17.580;2022-12-18T14:48:40;184.88;;;64.10;;
50739;SDS011;36704;52.524;17.580;2022-12-18T14:51:29;180.82;;;62.95;;
50739;SDS011;36704;52.524;17.580;2022-12-18T14:54:18;138.93;;;47.05;;
50739;SDS011;36704;52.524;17.580;2022-12-18T14:57:11;169.93;;;54.00;;
50739;SDS011;36704;52.524;17.580;2022-12-18T15:00:06;179.10;;;59.03;;
50739;SDS011;36704;52.524;17.580;2022-12-18T15:02:57;187.10;;;58.28;;
50739;SDS011;36704;52.524;17.580;2022-12-18T15:05:44;188.15;;;62.53;;
50739;SDS011;36704;52.524;17.580;2022-12-18T15:08:36;236.50;;;77.45;;
50739;SDS011;36704;52.524;17.580;2022-12-18T15:11:24;159.05;;;48.88;;
50739;SDS011;36704;52.524;17.580;2022-12-18T15:14:49;176.27;;;59.05;;
50739;SDS011;36704;52.524;17.580;2022-12-18T15:17:28;120.75;;;41.92;;
50739;SDS011;36704;52.524;17.580;2022-12-18T15:20:14;153.25;;;49.92;;
50739;SDS011;36704;52.524;17.580;2022-12-18T15:23:01;179.77;;;56.40;;
50739;SDS011;36704;52.524;17.580;2022-12-18T15:31:35;196.23;;;59.95;;
50739;SDS011;36704;52.524;17.580;2022-12-18T15:34:25;201.15;;;60.10;;
50739;SDS011;36704;52.524;17.580;2022-12-18T15:37:13;204.63;;;66.53;;
50739;SDS011;36704;52.524;17.580;2022-12-18T15:40:00;155.13;;;50.28;;
50739;SDS011;36704;52.524;17.580;2022-12-18T15:42:50;176.27;;;57.92;;
50739;SDS011;36704;52.524;17.580;2022-12-18T15:45:58;192.35;;;57.40;;
50739;SDS011;36704;52.524;17.580;2022-12-18T15:48:46;199.10;;;65.22;;
50739;SDS011;36704;52.524;17.580;2022-12-18T15:51:35;229.63;;;72.68;;
50739;SDS011;36704;52.524;17.580;2022-12-18T15:54:22;221.05;;;81.18;;
50739;SDS011;36704;52.524;17.580;2022-12-18T15:57:28;127.82;;;44.00;;
50739;SDS011;36704;52.524;17.580;2022-12-18T16:00:18;233.75;;;85.20;;
50739;SDS011;36704;52.524;17.580;2022-12-18T16:03:05;264.75;;;86.53;;
50739;SDS011;36704;52.524;17.580;2022-12-18T16:05:53;174.40;;;57.45;;
50739;SDS011;36704;52.524;17.580;2022-12-18T16:08:41;341.48;;;113.45;;
50739;SDS011;36704;52.524;17.580;2022-12-18T16:11:28;262.23;;;82.88;;
50739;SDS011;36704;52.524;17.580;2022-12-18T16:14:27;332.27;;;101.45;;
50739;SDS011;36704;52.524;17.580;2022-12-18T16:17:15;274.70;;;87.05;;
50739;SDS011;36704;52.524;17.580;2022-12-18T16:20:02;290.33;;;85.90;;
50739;SDS011;36704;52.524;17.580;2022-12-18T16:22:50;193.73;;;55.45;;
50739;SDS011;36704;52.524;17.580;2022-12-18T16:25:37;147.18;;;48.08;;
50739;SDS011;36704;52.524;17.580;2022-12-18T16:28:24;290.80;;;87.80;;
50739;SDS011;36704;52.524;17.580;2022-12-18T16:31:11;226.93;;;63.67;;
50739;SDS011;36704;52.524;17.580;2022-12-18T16:34:19;246.63;;;65.85;;
50739;SDS011;36704;52.524;17.580;2022-12-18T16:37:10;269.13;;;75.57;;
50739;SDS011;36704;52.524;17.580;2022-12-18T16:39:58;311.63;;;85.63;;
50739;SDS011;36704;52.524;17.580;2022-12-18T16:42:45;354.20;;;102.05;;
50739;SDS011;36704;52.524;17.580;2022-12-18T16:45:32;247.05;;;74.38;;
50739;SDS011;36704;52.524;17.580;2022-12-18T16:48:19;338.20;;;90.90;;
50739;SDS011;36704;52.524;17.580;2022-12-18T16:51:05;285.10;;;83.05;;
50739;SDS011;36704;52.524;17.580;2022-12-18T16:53:55;158.57;;;46.42;;
50739;SDS011;36704;52.524;17.580;2022-12-18T16:56:44;167.20;;;50.08;;
50739;SDS011;36704;52.524;17.580;2022-12-18T16:59:35;201.52;;;59.63;;
50739;SDS011;36704;52.524;17.580;2022-12-18T17:02:23;217.35;;;65.63;;
50739;SDS011;36704;52.524;17.580;2022-12-18T17:05:13;205.02;;;64.68;;
50739;SDS011;36704;52.524;17.580;2022-12-18T17:07:59;235.43;;;72.22;;
50739;SDS011;36704;52.524;17.580;2022-12-18T17:10:45;175.10;;;54.70;;
50739;SDS011;36704;52.524;17.580;2022-12-18T17:13:32;167.90;;;56.53;;
50739;SDS011;36704;52.524;17.580;2022-12-18T17:16:19;145.05;;;51.80;;
50739;SDS011;36704;52.524;17.580;2022-12-18T17:19:06;181.43;;;56.22;;
50739;SDS011;36704;52.524;17.580;2022-12-18T17:22:04;145.45;;;46.03;;
50739;SDS011;36704;52.524;17.580;2022-12-18T17:24:51;143.85;;;45.58;;
50739;SDS011;36704;52.524;17.580;2022-12-18T17:27:38;185.05;;;61.25;;
50739;SDS011;36704;52.524;17.580;2022-12-18T17:30:25;372.15;;;102.38;;
50739;SDS011;36704;52.524;17.580;2022-12-18T17:33:11;313.60;;;85.72;;
50739;SDS011;36704;52.524;17.580;2022-12-18T17:35:59;375.77;;;108.00;;
50739;SDS011;36704;52.524;17.580;2022-12-18T17:38:53;248.50;;;70.53;;
50739;SDS011;36704;52.524;17.580;2022-12-18T17:41:41;280.40;;;83.13;;
50739;SDS011;36704;52.524;17.580;2022-12-18T17:44:31;219.02;;;70.20;;
50739;SDS011;36704;52.524;17.580;2022-12-18T17:47:18;213.13;;;64.67;;
50739;SDS011;36704;52.524;17.580;2022-12-18T17:50:09;188.80;;;55.17;;
50739;SDS011;36704;52.524;17.580;2022-12-18T17:52:56;228.70;;;73.93;;
50739;SDS011;36704;52.524;17.580;2022-12-18T17:55:43;201.50;;;65.50;;
50739;SDS011;36704;52.524;17.580;2022-12-18T17:58:41;162.60;;;52.00;;
50739;SDS011;36704;52.524;17.580;2022-12-18T18:01:28;293.30;;;90.87;;
50739;SDS011;36704;52.524;17.580;2022-12-18T18:04:15;164.73;;;51.55;;
50739;SDS011;36704;52.524;17.580;2022-12-18T18:07:02;206.93;;;65.83;;
50739;SDS011;36704;52.524;17.580;2022-12-18T18:09:49;151.73;;;43.73;;
50739;SDS011;36704;52.524;17.580;2022-12-18T18:12:37;215.00;;;63.55;;
50739;SDS011;36704;52.524;17.580;2022-12-18T18:15:42;220.03;;;71.50;;